sensor_id;sensor_type;location;lat;lon;timestamp;P1;durP1;ratioP1;P2;durP2;ratioP2
5491;SDS011;2768;53.540;10.224;2023-04-03T00:03:11;2.60;;;1.57;;
5491;SDS011;2768;53.540;10.224;2023-04-03T00:09:04;2.93;;;1.73;;
5491;SDS011;2768;53.540;10.224;2023-04-03T00:15:02;4.43;;;1.60;;
5491;SDS011;2768;53.540;10.224;2023-04-03T00:20:55;4.97;;;1.90;;
5491;SDS011;2768;53.540;10.224;2023-04-03T00:26:48;4.00;;;1.60;;
5491;SDS011;2768;53.540;10.224;2023-04-03T00:32:43;3.40;;;2.10;;
5491;SDS011;2768;53.540;10.224;2023-04-03T00:38:36;2.93;;;1.93;;
5491;SDS011;2768;53.540;10.224;2023-04-03T00:51:02;3.90;;;1.70;;
5491;SDS011;2768;53.540;10.224;2023-04-03T00:56:58;6.33;;;2.27;;
5491;SDS011;2768;53.540;10.224;2023-04-03T01:02:51;4.70;;;2.23;;
5491;SDS011;2768;53.540;10.224;2023-04-03T01:08:46;4.83;;;1.97;;
5491;SDS011;2768;53.540;10.224;2023-04-03T01:14:42;4.70;;;1.80;;
5491;SDS011;2768;53.540;10.224;2023-04-03T01:20:39;3.50;;;1.77;;
5491;SDS011;2768;53.540;10.224;2023-04-03T01:26:58;3.63;;;2.10;;
5491;SDS011;2768;53.540;10.224;2023-04-03T01:32:52;4.33;;;2.30;;
5491;SDS011;2768;53.540;10.224;2023-04-03T01:38:46;2.70;;;1.77;;
5491;SDS011;2768;53.540;10.224;2023-04-03T01:44:39;4.83;;;2.30;;
5491;SDS011;2768;53.540;10.224;2023-04-03T01:50:34;4.57;;;1.63;;
5491;SDS011;2768;53.540;10.224;2023-04-03T01:56:29;9.63;;;2.40;;
5491;SDS011;2768;53.540;10.224;2023-04-03T02:02:22;2.30;;;1.80;;
5491;SDS011;2768;53.540;10.224;2023-04-03T02:08:17;3.47;;;1.93;;
5491;SDS011;2768;53.540;10.224;2023-04-03T02:14:11;5.13;;;2.37;;
5491;SDS011;2768;53.540;10.224;2023-04-03T02:20:05;2.33;;;1.43;;
5491;SDS011;2768;53.540;10.224;2023-04-03T02:26:04;3.67;;;1.80;;
5491;SDS011;2768;53.540;10.224;2023-04-03T02:32:00;6.10;;;2.03;;
5491;SDS011;2768;53.540;10.224;2023-04-03T02:37:55;3.47;;;1.83;;
5491;SDS011;2768;53.540;10.224;2023-04-03T02:43:50;2.93;;;1.60;;
5491;SDS011;2768;53.540;10.224;2023-04-03T02:49:43;3.90;;;1.70;;
5491;SDS011;2768;53.540;10.224;2023-04-03T02:55:37;2.63;;;1.50;;
5491;SDS011;2768;53.540;10.224;2023-04-03T03:01:32;3.30;;;1.93;;
5491;SDS011;2768;53.540;10.224;2023-04-03T03:07:25;5.20;;;2.00;;
5491;SDS011;2768;53.540;10.224;2023-04-03T03:13:19;2.37;;;1.67;;
5491;SDS011;2768;53.540;10.224;2023-04-03T03:19:13;3.07;;;1.73;;
5491;SDS011;2768;53.540;10.224;2023-04-03T03:25:07;1.60;;;1.50;;
5491;SDS011;2768;53.540;10.224;2023-04-03T03:31:00;4.07;;;1.97;;
5491;SDS011;2768;53.540;10.224;2023-04-03T03:36:57;2.70;;;1.67;;
5491;SDS011;2768;53.540;10.224;2023-04-03T03:42:50;2.00;;;1.37;;
5491;SDS011;2768;53.540;10.224;2023-04-03T03:48:44;3.80;;;2.17;;
5491;SDS011;2768;53.540;10.224;2023-04-03T03:54:39;5.30;;;2.10;;
5491;SDS011;2768;53.540;10.224;2023-04-03T04:00:32;3.93;;;2.13;;
5491;SDS011;2768;53.540;10.224;2023-04-03T04:06:26;6.40;;;2.07;;
5491;SDS011;2768;53.540;10.224;2023-04-03T04:12:24;2.60;;;2.17;;
5491;SDS011;2768;53.540;10.224;2023-04-03T04:18:17;2.80;;;2.50;;
5491;SDS011;2768;53.540;10.224;2023-04-03T04:24:13;4.53;;;2.73;;
5491;SDS011;2768;53.540;10.224;2023-04-03T04:30:08;4.20;;;2.50;;
5491;SDS011;2768;53.540;10.224;2023-04-03T04:36:04;3.00;;;2.73;;
5491;SDS011;2768;53.540;10.224;2023-04-03T04:41:59;4.50;;;2.50;;
5491;SDS011;2768;53.540;10.224;2023-04-03T04:47:56;5.70;;;2.60;;
5491;SDS011;2768;53.540;10.224;2023-04-03T04:53:50;4.63;;;3.10;;
5491;SDS011;2768;53.540;10.224;2023-04-03T04:59:46;5.73;;;3.00;;
5491;SDS011;2768;53.540;10.224;2023-04-03T05:05:41;8.53;;;3.50;;
5491;SDS011;2768;53.540;10.224;2023-04-03T05:11:35;15.60;;;4.77;;
5491;SDS011;2768;53.540;10.224;2023-04-03T05:17:30;3.80;;;3.40;;
5491;SDS011;2768;53.540;10.224;2023-04-03T05:23:26;4.93;;;3.70;;
5491;SDS011;2768;53.540;10.224;2023-04-03T05:29:22;8.67;;;4.30;;
5491;SDS011;2768;53.540;10.224;2023-04-03T05:35:15;7.50;;;4.13;;
5491;SDS011;2768;53.540;10.224;2023-04-03T05:41:13;6.63;;;3.90;;
5491;SDS011;2768;53.540;10.224;2023-04-03T05:47:09;8.17;;;3.90;;
5491;SDS011;2768;53.540;10.224;2023-04-03T05:53:03;5.17;;;4.00;;
5491;SDS011;2768;53.540;10.224;2023-04-03T05:58:58;8.33;;;3.47;;
5491;SDS011;2768;53.540;10.224;2023-04-03T06:04:52;5.97;;;3.90;;
5491;SDS011;2768;53.540;10.224;2023-04-03T06:10:46;4.00;;;3.00;;
5491;SDS011;2768;53.540;10.224;2023-04-03T06:16:41;6.63;;;3.10;;
5491;SDS011;2768;53.540;10.224;2023-04-03T06:22:35;6.67;;;3.10;;
5491;SDS011;2768;53.540;10.224;2023-04-03T06:28:29;5.47;;;3.03;;
5491;SDS011;2768;53.540;10.224;2023-04-03T06:34:23;5.13;;;2.70;;
5491;SDS011;2768;53.540;10.224;2023-04-03T06:40:18;2.60;;;2.40;;
5491;SDS011;2768;53.540;10.224;2023-04-03T06:46:14;5.53;;;3.07;;
5491;SDS011;2768;53.540;10.224;2023-04-03T06:52:10;6.70;;;2.70;;
5491;SDS011;2768;53.540;10.224;2023-04-03T06:58:04;3.40;;;2.17;;
5491;SDS011;2768;53.540;10.224;2023-04-03T07:03:57;3.20;;;2.00;;
5491;SDS011;2768;53.540;10.224;2023-04-03T07:09:52;4.30;;;1.83;;
5491;SDS011;2768;53.540;10.224;2023-04-03T07:15:45;3.47;;;1.87;;
5491;SDS011;2768;53.540;10.224;2023-04-03T07:21:40;3.03;;;1.53;;
5491;SDS011;2768;53.540;10.224;2023-04-03T07:27:34;2.20;;;1.50;;
5491;SDS011;2768;53.540;10.224;2023-04-03T07:33:27;5.50;;;2.10;;
5491;SDS011;2768;53.540;10.224;2023-04-03T07:39:21;3.50;;;1.60;;
5491;SDS011;2768;53.540;10.224;2023-04-03T07:45:16;3.97;;;1.20;;
5491;SDS011;2768;53.540;10.224;2023-04-03T07:51:10;1.80;;;1.40;;
5491;SDS011;2768;53.540;10.224;2023-04-03T07:57:04;3.43;;;1.70;;
5491;SDS011;2768;53.540;10.224;2023-04-03T08:02:59;4.90;;;1.60;;
5491;SDS011;2768;53.540;10.224;2023-04-03T08:08:53;3.20;;;1.30;;
5491;SDS011;2768;53.540;10.224;2023-04-03T08:14:47;3.97;;;1.13;;
5491;SDS011;2768;53.540;10.224;2023-04-03T08:20:42;2.80;;;1.20;;
5491;SDS011;2768;53.540;10.224;2023-04-03T08:26:36;3.13;;;1.33;;
5491;SDS011;2768;53.540;10.224;2023-04-03T08:32:29;7.07;;;1.00;;
5491;SDS011;2768;53.540;10.224;2023-04-03T08:38:24;1.30;;;1.17;;
5491;SDS011;2768;53.540;10.224;2023-04-03T08:44:20;1.73;;;1.00;;
5491;SDS011;2768;53.540;10.224;2023-04-03T08:50:18;1.63;;;1.10;;
5491;SDS011;2768;53.540;10.224;2023-04-03T08:56:15;1.20;;;1.00;;
5491;SDS011;2768;53.540;10.224;2023-04-03T09:02:19;1.13;;;0.83;;
5491;SDS011;2768;53.540;10.224;2023-04-03T09:08:22;1.90;;;1.10;;
5491;SDS011;2768;53.540;10.224;2023-04-03T09:14:20;5.37;;;3.00;;
5491;SDS011;2768;53.540;10.224;2023-04-03T09:20:19;2.73;;;2.17;;
5491;SDS011;2768;53.540;10.224;2023-04-03T09:26:18;2.43;;;1.50;;
5491;SDS011;2768;53.540;10.224;2023-04-03T09:32:21;2.60;;;1.17;;
5491;SDS011;2768;53.540;10.224;2023-04-03T09:38:18;1.70;;;1.47;;
5491;SDS011;2768;53.540;10.224;2023-04-03T09:44:20;2.03;;;1.20;;
5491;SDS011;2768;53.540;10.224;2023-04-03T09:50:20;1.90;;;1.20;;
5491;SDS011;2768;53.540;10.224;2023-04-03T09:56:19;2.20;;;1.00;;
5491;SDS011;2768;53.540;10.224;2023-04-03T10:02:22;1.93;;;1.00;;
5491;SDS011;2768;53.540;10.224;2023-04-03T10:08:26;1.33;;;1.23;;
5491;SDS011;2768;53.540;10.224;2023-04-03T10:14:21;3.10;;;1.30;;
5491;SDS011;2768;53.540;10.224;2023-04-03T10:20:21;1.60;;;0.87;;
5491;SDS011;2768;53.540;10.224;2023-04-03T10:26:28;3.17;;;1.13;;
5491;SDS011;2768;53.540;10.224;2023-04-03T10:32:37;3.10;;;0.90;;
5491;SDS011;2768;53.540;10.224;2023-04-03T10:38:42;1.00;;;1.00;;
5491;SDS011;2768;53.540;10.224;2023-04-03T10:44:46;1.23;;;0.80;;
5491;SDS011;2768;53.540;10.224;2023-04-03T10:50:52;1.97;;;0.90;;
5491;SDS011;2768;53.540;10.224;2023-04-03T10:56:53;5.00;;;2.43;;
5491;SDS011;2768;53.540;10.224;2023-04-03T11:03:05;6.03;;;1.97;;
5491;SDS011;2768;53.540;10.224;2023-04-03T11:09:02;2.57;;;1.30;;
5491;SDS011;2768;53.540;10.224;2023-04-03T11:15:00;1.53;;;0.87;;
5491;SDS011;2768;53.540;10.224;2023-04-03T11:20:58;2.17;;;1.47;;
5491;SDS011;2768;53.540;10.224;2023-04-03T11:26:56;2.60;;;1.10;;
5491;SDS011;2768;53.540;10.224;2023-04-03T11:32:59;2.60;;;1.17;;
5491;SDS011;2768;53.540;10.224;2023-04-03T11:39:10;6.07;;;1.20;;
5491;SDS011;2768;53.540;10.224;2023-04-03T11:45:15;1.50;;;0.77;;
5491;SDS011;2768;53.540;10.224;2023-04-03T11:57:45;2.33;;;1.03;;
5491;SDS011;2768;53.540;10.224;2023-04-03T12:04:02;1.63;;;1.03;;
5491;SDS011;2768;53.540;10.224;2023-04-03T12:10:13;1.47;;;0.83;;
5491;SDS011;2768;53.540;10.224;2023-04-03T12:16:24;2.17;;;1.10;;
5491;SDS011;2768;53.540;10.224;2023-04-03T12:22:20;3.30;;;0.87;;
5491;SDS011;2768;53.540;10.224;2023-04-03T12:28:13;2.43;;;1.00;;
5491;SDS011;2768;53.540;10.224;2023-04-03T12:34:17;2.83;;;0.83;;
5491;SDS011;2768;53.540;10.224;2023-04-03T12:40:21;1.57;;;0.90;;
5491;SDS011;2768;53.540;10.224;2023-04-03T12:46:21;4.50;;;1.17;;
5491;SDS011;2768;53.540;10.224;2023-04-03T12:52:22;2.63;;;1.00;;
5491;SDS011;2768;53.540;10.224;2023-04-03T12:58:24;1.20;;;0.80;;
5491;SDS011;2768;53.540;10.224;2023-04-03T13:04:18;2.40;;;0.90;;
5491;SDS011;2768;53.540;10.224;2023-04-03T13:10:17;4.40;;;1.43;;
5491;SDS011;2768;53.540;10.224;2023-04-03T13:16:11;1.10;;;0.93;;
5491;SDS011;2768;53.540;10.224;2023-04-03T13:22:05;0.80;;;0.80;;
5491;SDS011;2768;53.540;10.224;2023-04-03T13:28:03;2.53;;;1.40;;
5491;SDS011;2768;53.540;10.224;2023-04-03T13:34:05;1.00;;;0.80;;
5491;SDS011;2768;53.540;10.224;2023-04-03T13:40:08;0.93;;;0.70;;
5491;SDS011;2768;53.540;10.224;2023-04-03T13:52:21;2.83;;;0.90;;
5491;SDS011;2768;53.540;10.224;2023-04-03T13:58:22;1.80;;;1.00;;
5491;SDS011;2768;53.540;10.224;2023-04-03T14:04:19;2.00;;;0.80;;
5491;SDS011;2768;53.540;10.224;2023-04-03T14:10:15;1.70;;;0.77;;
5491;SDS011;2768;53.540;10.224;2023-04-03T14:16:11;1.47;;;0.70;;
5491;SDS011;2768;53.540;10.224;2023-04-03T14:22:15;1.00;;;0.80;;
5491;SDS011;2768;53.540;10.224;2023-04-03T14:28:13;3.53;;;1.40;;
5491;SDS011;2768;53.540;10.224;2023-04-03T14:34:09;2.97;;;1.33;;
5491;SDS011;2768;53.540;10.224;2023-04-03T14:40:04;1.27;;;0.87;;
5491;SDS011;2768;53.540;10.224;2023-04-03T14:45:59;2.03;;;1.10;;
5491;SDS011;2768;53.540;10.224;2023-04-03T14:51:53;1.10;;;1.00;;
5491;SDS011;2768;53.540;10.224;2023-04-03T14:57:48;1.13;;;0.70;;
5491;SDS011;2768;53.540;10.224;2023-04-03T15:03:41;1.60;;;0.87;;
5491;SDS011;2768;53.540;10.224;2023-04-03T15:09:34;1.07;;;0.87;;
5491;SDS011;2768;53.540;10.224;2023-04-03T15:15:30;2.20;;;1.20;;
5491;SDS011;2768;53.540;10.224;2023-04-03T15:21:24;1.87;;;1.00;;
5491;SDS011;2768;53.540;10.224;2023-04-03T15:27:18;2.97;;;1.17;;
5491;SDS011;2768;53.540;10.224;2023-04-03T15:33:12;2.70;;;1.17;;
5491;SDS011;2768;53.540;10.224;2023-04-03T15:39:07;3.13;;;1.47;;
5491;SDS011;2768;53.540;10.224;2023-04-03T15:45:00;1.90;;;1.27;;
5491;SDS011;2768;53.540;10.224;2023-04-03T15:50:55;2.90;;;1.10;;
5491;SDS011;2768;53.540;10.224;2023-04-03T15:56:49;2.40;;;1.73;;
5491;SDS011;2768;53.540;10.224;2023-04-03T16:02:43;2.30;;;1.13;;
5491;SDS011;2768;53.540;10.224;2023-04-03T16:08:39;1.73;;;1.00;;
5491;SDS011;2768;53.540;10.224;2023-04-03T16:14:32;2.80;;;1.20;;
5491;SDS011;2768;53.540;10.224;2023-04-03T16:20:26;1.57;;;1.20;;
5491;SDS011;2768;53.540;10.224;2023-04-03T16:26:21;1.73;;;1.40;;
5491;SDS011;2768;53.540;10.224;2023-04-03T16:32:14;4.27;;;1.60;;
5491;SDS011;2768;53.540;10.224;2023-04-03T16:38:08;2.57;;;1.57;;
5491;SDS011;2768;53.540;10.224;2023-04-03T16:44:03;6.30;;;1.73;;
5491;SDS011;2768;53.540;10.224;2023-04-03T16:49:59;1.80;;;1.10;;
5491;SDS011;2768;53.540;10.224;2023-04-03T16:55:52;2.53;;;1.20;;
5491;SDS011;2768;53.540;10.224;2023-04-03T17:01:48;2.47;;;1.23;;
5491;SDS011;2768;53.540;10.224;2023-04-03T17:07:41;6.10;;;1.60;;
5491;SDS011;2768;53.540;10.224;2023-04-03T17:13:37;1.47;;;1.30;;
5491;SDS011;2768;53.540;10.224;2023-04-03T17:19:32;1.83;;;1.50;;
5491;SDS011;2768;53.540;10.224;2023-04-03T17:25:25;3.03;;;1.33;;
5491;SDS011;2768;53.540;10.224;2023-04-03T17:31:18;1.53;;;1.30;;
5491;SDS011;2768;53.540;10.224;2023-04-03T17:37:14;2.67;;;1.00;;
5491;SDS011;2768;53.540;10.224;2023-04-03T17:43:08;1.83;;;1.40;;
5491;SDS011;2768;53.540;10.224;2023-04-03T17:49:01;2.37;;;1.60;;
5491;SDS011;2768;53.540;10.224;2023-04-03T17:54:56;2.90;;;1.23;;
5491;SDS011;2768;53.540;10.224;2023-04-03T18:00:50;4.53;;;1.57;;
5491;SDS011;2768;53.540;10.224;2023-04-03T18:06:45;2.30;;;1.47;;
5491;SDS011;2768;53.540;10.224;2023-04-03T18:12:42;2.03;;;1.40;;
5491;SDS011;2768;53.540;10.224;2023-04-03T18:18:36;1.87;;;1.33;;
5491;SDS011;2768;53.540;10.224;2023-04-03T18:24:30;2.03;;;1.50;;
5491;SDS011;2768;53.540;10.224;2023-04-03T18:30:27;2.20;;;1.90;;
5491;SDS011;2768;53.540;10.224;2023-04-03T18:36:20;2.90;;;2.03;;
5491;SDS011;2768;53.540;10.224;2023-04-03T18:42:14;2.97;;;1.80;;
5491;SDS011;2768;53.540;10.224;2023-04-03T18:48:10;2.80;;;2.00;;
5491;SDS011;2768;53.540;10.224;2023-04-03T18:54:03;5.40;;;3.13;;
5491;SDS011;2768;53.540;10.224;2023-04-03T18:59:57;4.70;;;2.73;;
5491;SDS011;2768;53.540;10.224;2023-04-03T19:05:52;5.60;;;2.40;;
5491;SDS011;2768;53.540;10.224;2023-04-03T19:11:45;3.57;;;2.10;;
5491;SDS011;2768;53.540;10.224;2023-04-03T19:17:39;3.37;;;1.90;;
5491;SDS011;2768;53.540;10.224;2023-04-03T19:23:34;3.60;;;2.30;;
5491;SDS011;2768;53.540;10.224;2023-04-03T19:29:27;4.27;;;1.83;;
5491;SDS011;2768;53.540;10.224;2023-04-03T19:35:20;1.87;;;1.77;;
5491;SDS011;2768;53.540;10.224;2023-04-03T19:41:16;2.63;;;1.77;;
5491;SDS011;2768;53.540;10.224;2023-04-03T19:47:13;5.10;;;1.83;;
5491;SDS011;2768;53.540;10.224;2023-04-03T19:53:09;2.50;;;1.60;;
5491;SDS011;2768;53.540;10.224;2023-04-03T19:59:10;2.20;;;1.50;;
5491;SDS011;2768;53.540;10.224;2023-04-03T20:05:04;6.87;;;4.70;;
5491;SDS011;2768;53.540;10.224;2023-04-03T20:10:58;4.23;;;2.00;;
5491;SDS011;2768;53.540;10.224;2023-04-03T20:16:52;5.70;;;3.20;;
5491;SDS011;2768;53.540;10.224;2023-04-03T20:22:46;5.27;;;3.50;;
5491;SDS011;2768;53.540;10.224;2023-04-03T20:28:39;6.17;;;3.67;;
5491;SDS011;2768;53.540;10.224;2023-04-03T20:34:34;2.73;;;2.50;;
5491;SDS011;2768;53.540;10.224;2023-04-03T20:40:27;5.40;;;2.10;;
5491;SDS011;2768;53.540;10.224;2023-04-03T20:46:20;3.30;;;2.03;;
5491;SDS011;2768;53.540;10.224;2023-04-03T20:52:39;2.80;;;1.83;;
5491;SDS011;2768;53.540;10.224;2023-04-03T20:58:33;3.60;;;2.10;;
5491;SDS011;2768;53.540;10.224;2023-04-03T21:04:30;6.70;;;1.80;;
5491;SDS011;2768;53.540;10.224;2023-04-03T21:22:53;1.87;;;1.60;;
5491;SDS011;2768;53.540;10.224;2023-04-03T21:28:47;2.20;;;1.57;;
5491;SDS011;2768;53.540;10.224;2023-04-03T21:34:42;2.60;;;1.60;;
5491;SDS011;2768;53.540;10.224;2023-04-03T21:40:37;2.87;;;1.50;;
5491;SDS011;2768;53.540;10.224;2023-04-03T21:46:31;2.40;;;1.83;;
5491;SDS011;2768;53.540;10.224;2023-04-03T21:52:24;2.20;;;1.40;;
5491;SDS011;2768;53.540;10.224;2023-04-03T21:58:19;4.10;;;2.10;;
5491;SDS011;2768;53.540;10.224;2023-04-03T22:04:12;2.37;;;1.40;;
5491;SDS011;2768;53.540;10.224;2023-04-03T22:10:07;6.10;;;1.50;;
5491;SDS011;2768;53.540;10.224;2023-04-03T22:16:02;2.53;;;2.00;;
5491;SDS011;2768;53.540;10.224;2023-04-03T22:21:56;3.20;;;2.07;;
5491;SDS011;2768;53.540;10.224;2023-04-03T22:27:50;3.33;;;1.80;;
5491;SDS011;2768;53.540;10.224;2023-04-03T22:33:44;4.40;;;2.10;;
5491;SDS011;2768;53.540;10.224;2023-04-03T22:39:38;1.70;;;1.60;;
5491;SDS011;2768;53.540;10.224;2023-04-03T22:45:31;4.37;;;1.80;;
5491;SDS011;2768;53.540;10.224;2023-04-03T22:51:26;2.47;;;1.40;;
5491;SDS011;2768;53.540;10.224;2023-04-03T22:57:19;2.20;;;1.30;;
5491;SDS011;2768;53.540;10.224;2023-04-03T23:03:13;4.00;;;1.50;;
5491;SDS011;2768;53.540;10.224;2023-04-03T23:09:07;2.10;;;1.30;;
5491;SDS011;2768;53.540;10.224;2023-04-03T23:15:01;3.70;;;1.73;;
5491;SDS011;2768;53.540;10.224;2023-04-03T23:20:55;2.30;;;1.57;;
5491;SDS011;2768;53.540;10.224;2023-04-03T23:26:51;1.90;;;1.37;;
5491;SDS011;2768;53.540;10.224;2023-04-03T23:32:44;1.80;;;1.23;;
5491;SDS011;2768;53.540;10.224;2023-04-03T23:38:38;2.70;;;1.50;;
5491;SDS011;2768;53.540;10.224;2023-04-03T23:44:33;2.63;;;1.17;;
5491;SDS011;2768;53.540;10.224;2023-04-03T23:50:26;2.60;;;1.30;;
5491;SDS011;2768;53.540;10.224;2023-04-03T23:56:20;3.23;;;1.50;;
